createdAt,value
2023-11-15T00:00:19.977Z,13.26
2023-11-15T00:02:48.310Z,13.25
2023-11-15T00:05:16.676Z,13.25
2023-11-15T00:07:45.392Z,13.22
2023-11-15T00:10:14.991Z,13.23
2023-11-15T00:12:44.662Z,13.21
2023-11-15T00:15:15.423Z,13.20
2023-11-15T00:17:46.866Z,13.11
2023-11-15T00:20:15.342Z,12.99
2023-11-15T00:22:43.681Z,12.86
2023-11-15T00:25:11.882Z,12.75
2023-11-15T00:27:40.109Z,12.64
2023-11-15T00:30:12.095Z,12.59
2023-11-15T00:32:40.800Z,12.57
2023-11-15T00:35:13.586Z,12.58
2023-11-15T00:37:43.446Z,12.54
2023-11-15T00:40:15.002Z,12.52
2023-11-15T00:42:43.652Z,12.49
2023-11-15T00:45:13.438Z,12.43
2023-11-15T00:47:42.246Z,12.42
2023-11-15T00:50:12.537Z,12.37
2023-11-15T00:52:40.709Z,12.33
2023-11-15T00:55:10.177Z,12.27
2023-11-15T00:57:38.423Z,12.22
2023-11-15T01:00:23.097Z,12.24
2023-11-15T01:02:52.387Z,12.20
2023-11-15T01:05:22.284Z,12.20
2023-11-15T01:07:50.443Z,12.14
2023-11-15T01:10:20.068Z,12.05
2023-11-15T01:12:48.460Z,11.97
2023-11-15T01:15:20.435Z,11.93
2023-11-15T01:17:48.688Z,11.94
2023-11-15T01:20:17.330Z,11.97
2023-11-15T01:22:46.934Z,12.00
2023-11-15T01:25:15.525Z,12.04
2023-11-15T01:27:43.805Z,12.05
2023-11-15T01:30:12.693Z,12.04
2023-11-15T01:32:41.482Z,12.02
2023-11-15T01:35:10.527Z,12.00
2023-11-15T01:37:38.818Z,11.97
2023-11-15T01:40:11.415Z,11.99
2023-11-15T01:42:40.566Z,12.02
2023-11-15T01:45:09.574Z,12.04
2023-11-15T01:47:38.439Z,12.02
2023-11-15T01:50:11.277Z,11.96
2023-11-15T01:52:40.375Z,11.91
2023-11-15T01:55:14.735Z,11.87
2023-11-15T01:57:43.088Z,11.86
2023-11-15T02:00:12.709Z,11.86
2023-11-15T02:02:41.742Z,11.86
2023-11-15T02:05:10.970Z,11.85
2023-11-15T02:07:40.563Z,11.85
2023-11-15T02:10:13.888Z,11.85
2023-11-15T02:12:42.097Z,11.84
2023-11-15T02:15:11.046Z,11.75
2023-11-15T02:17:39.338Z,11.61
2023-11-15T02:20:09.691Z,11.53
2023-11-15T02:22:46.135Z,11.50
2023-11-15T02:25:16.560Z,11.46
2023-11-15T02:27:44.870Z,11.39
2023-11-15T02:30:13.782Z,11.35
2023-11-15T02:32:43.710Z,11.37
2023-11-15T02:35:12.432Z,11.39
2023-11-15T02:37:40.578Z,11.48
2023-11-15T02:40:12.165Z,11.55
2023-11-15T02:42:41.945Z,11.62
2023-11-15T02:45:11.469Z,11.61
2023-11-15T02:47:39.871Z,11.54
2023-11-15T02:50:09.344Z,11.43
2023-11-15T02:52:38.205Z,11.40
2023-11-15T02:55:07.031Z,11.43
2023-11-15T02:57:35.175Z,11.51
2023-11-15T03:00:06.966Z,11.61
2023-11-15T03:02:35.174Z,11.67
2023-11-15T03:05:03.963Z,11.69
2023-11-15T03:07:32.138Z,11.68
2023-11-15T03:10:01.111Z,11.65
2023-11-15T03:12:29.368Z,11.63
2023-11-15T03:14:57.747Z,11.60
2023-11-15T03:17:27.530Z,11.62
2023-11-15T03:19:56.097Z,11.66
2023-11-15T03:22:24.345Z,11.72
2023-11-15T03:24:52.541Z,11.75
2023-11-15T03:27:20.858Z,11.83
2023-11-15T03:29:49.123Z,11.87
2023-11-15T03:32:18.485Z,11.88
2023-11-15T03:34:48.924Z,11.90
2023-11-15T03:37:17.232Z,11.87
2023-11-15T03:39:46.609Z,11.85
2023-11-15T03:42:14.825Z,11.82
2023-11-15T03:44:42.968Z,11.76
2023-11-15T03:47:11.100Z,11.66
2023-11-15T03:49:39.258Z,11.52
2023-11-15T03:52:09.273Z,11.48
2023-11-15T03:54:37.526Z,11.48
2023-11-15T03:57:09.298Z,11.40
2023-11-15T03:59:37.556Z,11.38
2023-11-15T04:02:05.872Z,11.39
2023-11-15T04:04:34.851Z,11.42
2023-11-15T04:07:04.298Z,11.48
2023-11-15T04:09:35.513Z,11.53
2023-11-15T04:12:03.918Z,11.57
2023-11-15T04:14:32.085Z,11.62
2023-11-15T04:17:00.280Z,11.64
2023-11-15T04:19:28.611Z,11.63
2023-11-15T04:22:08.598Z,11.65
2023-11-15T04:24:44.342Z,11.66
2023-11-15T04:27:14.300Z,11.62
2023-11-15T04:29:42.792Z,11.59
2023-11-15T04:32:11.140Z,11.57
2023-11-15T04:34:39.535Z,11.54
2023-11-15T04:37:07.734Z,11.53
2023-11-15T04:39:35.809Z,11.55
2023-11-15T04:42:05.725Z,11.58
2023-11-15T04:44:33.983Z,11.62
2023-11-15T04:47:02.298Z,11.64
2023-11-15T04:49:30.454Z,11.65
2023-11-15T04:51:58.562Z,11.66
2023-11-15T04:54:26.782Z,11.68
2023-11-15T04:56:54.911Z,11.69
2023-11-15T04:59:24.650Z,11.69
2023-11-15T05:01:52.870Z,11.68
2023-11-15T05:06:49.834Z,11.65
2023-11-15T05:09:22.475Z,11.63
2023-11-15T05:11:50.960Z,11.64
2023-11-15T05:14:19.163Z,11.65
2023-11-15T05:16:48.732Z,11.65
2023-11-15T05:19:16.858Z,11.67
2023-11-15T05:21:44.962Z,11.66
2023-11-15T05:24:13.304Z,11.66
2023-11-15T05:26:41.494Z,11.64
2023-11-15T05:29:09.740Z,11.64
2023-11-15T05:31:37.904Z,11.59
2023-11-15T05:34:07.615Z,11.58
2023-11-15T05:36:35.850Z,11.56
2023-11-15T05:39:04.535Z,11.57
2023-11-15T05:41:32.915Z,11.56
2023-11-15T05:44:01.757Z,11.56
2023-11-15T05:46:29.951Z,11.53
2023-11-15T05:48:58.095Z,11.54
2023-11-15T05:51:27.684Z,11.52
2023-11-15T05:53:55.859Z,11.52
2023-11-15T05:56:24.560Z,11.53
2023-11-15T05:58:52.639Z,11.56
2023-11-15T06:01:21.883Z,11.56
2023-11-15T06:03:50.221Z,11.54
2023-11-15T06:06:18.606Z,11.54
2023-11-15T06:08:48.597Z,11.55
2023-11-15T06:11:17.594Z,11.53
2023-11-15T06:13:45.748Z,11.56
2023-11-15T06:16:13.899Z,11.52
2023-11-15T06:18:43.627Z,11.49
2023-11-15T06:21:12.830Z,11.45
2023-11-15T06:23:41.038Z,11.43
2023-11-15T06:26:13.122Z,11.44
2023-11-15T06:28:42.185Z,11.45
2023-11-15T06:31:10.384Z,11.47
2023-11-15T06:33:39.760Z,11.49
2023-11-15T06:36:09.602Z,11.51
2023-11-15T06:38:37.784Z,11.52
2023-11-15T06:41:08.706Z,11.54
2023-11-15T06:43:38.414Z,11.57
2023-11-15T06:46:06.668Z,11.60
2023-11-15T06:48:34.903Z,11.66
2023-11-15T06:51:03.985Z,11.70
2023-11-15T06:53:32.745Z,11.77
2023-11-15T06:56:00.926Z,11.85
2023-11-15T06:58:29.084Z,11.95
2023-11-15T07:00:58.654Z,12.02
2023-11-15T07:03:26.980Z,12.05
2023-11-15T07:05:55.238Z,12.10
2023-11-15T07:08:23.465Z,12.18
2023-11-15T07:10:51.698Z,12.21
2023-11-15T07:13:22.330Z,12.21
2023-11-15T07:15:51.773Z,12.22
2023-11-15T07:18:24.917Z,12.29
2023-11-15T07:20:53.775Z,12.29
2023-11-15T07:23:22.015Z,12.28
2023-11-15T07:25:50.315Z,12.21
2023-11-15T07:28:19.846Z,12.18
2023-11-15T07:30:48.096Z,12.13
2023-11-15T07:33:16.421Z,12.10
2023-11-15T07:35:47.718Z,12.12
2023-11-15T07:38:16.537Z,12.19
2023-11-15T07:40:45.112Z,12.24
2023-11-15T07:43:14.984Z,12.40
2023-11-15T07:45:43.459Z,12.57
2023-11-15T07:48:12.374Z,12.69
2023-11-15T07:50:42.166Z,12.77
2023-11-15T07:53:11.761Z,12.83
2023-11-15T07:55:39.878Z,12.89
2023-11-15T07:58:08.914Z,12.92
2023-11-15T08:00:38.239Z,12.93
2023-11-15T08:03:06.585Z,12.99
2023-11-15T08:05:34.927Z,13.06
2023-11-15T08:08:03.465Z,13.05
2023-11-15T08:10:33.873Z,13.03
2023-11-15T08:13:02.001Z,12.97
2023-11-15T08:15:30.212Z,13.02
2023-11-15T08:17:58.446Z,13.01
2023-11-15T08:20:26.721Z,13.02
2023-11-15T08:22:54.873Z,12.95
2023-11-15T08:25:23.184Z,12.89
2023-11-15T08:27:53.063Z,12.81
2023-11-15T08:30:22.595Z,12.70
2023-11-15T08:32:50.921Z,12.69
2023-11-15T08:35:19.223Z,12.71
2023-11-15T08:37:47.391Z,12.69
2023-11-15T08:40:26.134Z,12.82
2023-11-15T08:42:59.701Z,13.01
2023-11-15T08:45:28.142Z,13.22
2023-11-15T08:47:59.055Z,13.36
2023-11-15T08:50:28.634Z,13.37
2023-11-15T08:52:57.970Z,13.44
2023-11-15T08:55:26.153Z,13.53
2023-11-15T08:57:54.555Z,13.65
2023-11-15T09:00:25.767Z,13.61
2023-11-15T09:02:54.133Z,13.56
2023-11-15T09:05:24.492Z,13.44
2023-11-15T09:07:52.842Z,13.33
2023-11-15T09:10:24.171Z,13.25
2023-11-15T09:12:53.898Z,13.26
2023-11-15T09:15:25.753Z,13.28
2023-11-15T09:17:54.815Z,13.27
2023-11-15T09:20:27.888Z,13.18
2023-11-15T09:22:56.591Z,13.09
2023-11-15T09:25:25.563Z,12.97
2023-11-15T09:27:55.777Z,12.96
2023-11-15T09:30:26.682Z,13.03
2023-11-15T09:32:56.197Z,13.08
2023-11-15T09:35:29.436Z,13.13
2023-11-15T09:37:59.799Z,13.09
2023-11-15T09:40:28.971Z,13.09
2023-11-15T09:43:01.098Z,13.07
2023-11-15T09:45:33.713Z,13.09
2023-11-15T09:48:04.146Z,13.07
2023-11-15T09:50:35.081Z,13.10
2023-11-15T09:53:06.705Z,13.11
2023-11-15T09:55:36.210Z,13.13
2023-11-15T09:58:04.541Z,13.13
2023-11-15T10:00:34.199Z,13.08
2023-11-15T10:03:02.999Z,13.08
2023-11-15T10:05:33.469Z,13.00
2023-11-15T10:08:13.090Z,12.93
2023-11-15T10:10:43.272Z,12.95
2023-11-15T10:13:15.696Z,12.97
2023-11-15T10:15:46.709Z,12.97
2023-11-15T10:18:16.952Z,12.98
2023-11-15T10:20:45.484Z,13.06
2023-11-15T10:23:14.900Z,13.05
2023-11-15T10:25:52.431Z,13.09
2023-11-15T10:28:23.540Z,13.13
2023-11-15T10:31:04.578Z,13.21
2023-11-15T10:33:33.608Z,13.28
2023-11-15T10:36:26.489Z,13.35
2023-11-15T10:38:56.907Z,13.92
2023-11-15T10:41:27.159Z,18.31
2023-11-15T10:43:56.222Z,23.24
2023-11-15T10:46:30.612Z,27.71
2023-11-15T10:49:00.461Z,31.13
2023-11-15T10:51:42.281Z,34.07
2023-11-15T10:54:12.661Z,36.70
2023-11-15T10:56:42.523Z,38.62
2023-11-15T10:59:11.698Z,40.18
2023-11-15T11:01:43.648Z,41.62
2023-11-15T11:04:16.845Z,42.84
2023-11-15T11:06:51.929Z,43.47
2023-11-15T11:09:24.929Z,43.50
2023-11-15T11:11:59.165Z,43.58
2023-11-15T11:14:28.800Z,43.74
2023-11-15T11:17:00.393Z,43.76
2023-11-15T11:19:28.696Z,40.34
2023-11-15T11:22:09.098Z,36.59
2023-11-15T11:24:40.998Z,35.06
2023-11-15T11:27:31.812Z,34.85
2023-11-15T11:30:20.696Z,35.41
2023-11-15T11:32:52.143Z,33.11
2023-11-15T11:35:36.121Z,30.12
2023-11-15T11:38:05.808Z,27.61
2023-11-15T11:40:40.754Z,25.82
2023-11-15T11:43:23.194Z,24.30
2023-11-15T11:45:55.150Z,23.12
2023-11-15T11:48:27.167Z,22.09
2023-11-15T11:51:00.909Z,21.28
2023-11-15T11:53:29.627Z,20.61
2023-11-15T11:55:58.748Z,20.11
2023-11-15T11:58:29.999Z,19.77
2023-11-15T12:01:03.207Z,19.52
2023-11-15T12:03:33.582Z,19.26
2023-11-15T12:06:09.756Z,19.02
2023-11-15T12:08:39.970Z,18.91
2023-11-15T12:11:09.489Z,18.86
2023-11-15T12:13:49.682Z,18.85
2023-11-15T12:16:22.415Z,18.85
2023-11-15T12:19:10.009Z,18.84
2023-11-15T12:21:39.907Z,18.84
2023-11-15T12:24:11.502Z,18.88
2023-11-15T12:26:47.314Z,18.73
2023-11-15T12:29:21.161Z,18.57
2023-11-15T12:31:52.081Z,18.47
2023-11-15T12:34:23.175Z,18.38
2023-11-15T12:36:52.770Z,18.24
2023-11-15T12:39:23.387Z,18.16
2023-11-15T12:41:54.098Z,18.04
2023-11-15T12:44:22.799Z,17.91
2023-11-15T12:46:55.419Z,17.84
2023-11-15T12:49:29.072Z,17.77
2023-11-15T12:51:57.923Z,17.73
2023-11-15T12:54:26.157Z,17.72
2023-11-15T12:57:05.825Z,17.73
2023-11-15T12:59:39.320Z,17.81
2023-11-15T13:02:08.719Z,17.91
2023-11-15T13:04:48.404Z,18.03
2023-11-15T13:07:16.949Z,18.10
2023-11-15T13:09:45.594Z,18.18
2023-11-15T13:12:25.806Z,18.19
2023-11-15T13:14:55.507Z,18.22
2023-11-15T13:17:24.754Z,18.23
2023-11-15T13:19:56.589Z,18.33
2023-11-15T13:22:25.307Z,18.38
2023-11-15T13:24:53.590Z,18.34
2023-11-15T13:27:22.060Z,18.31
2023-11-15T13:29:52.106Z,18.34
2023-11-15T13:32:20.698Z,18.34
2023-11-15T13:34:52.108Z,18.33
2023-11-15T13:37:21.958Z,18.25
2023-11-15T13:39:50.294Z,18.15
2023-11-15T13:42:18.647Z,18.01
2023-11-15T13:44:48.726Z,17.86
2023-11-15T13:47:17.012Z,17.72
2023-11-15T13:49:48.818Z,17.53
2023-11-15T13:52:17.503Z,17.35
2023-11-15T13:54:48.329Z,17.16
2023-11-15T13:57:18.934Z,16.99
2023-11-15T13:59:47.335Z,16.81
2023-11-15T14:02:15.613Z,16.68
2023-11-15T14:04:43.976Z,16.66
2023-11-15T14:07:12.648Z,16.61
2023-11-15T14:09:41.402Z,16.62
2023-11-15T14:12:12.300Z,16.59
2023-11-15T14:14:41.385Z,16.57
2023-11-15T14:17:11.489Z,16.53
2023-11-15T14:19:41.210Z,16.54
2023-11-15T14:22:09.524Z,16.51
2023-11-15T14:24:37.927Z,16.45
2023-11-15T14:27:06.736Z,16.32
2023-11-15T14:29:36.977Z,16.25
2023-11-15T14:32:08.891Z,16.22
2023-11-15T14:34:37.168Z,16.21
2023-11-15T14:37:05.882Z,16.16
2023-11-15T14:39:34.214Z,16.13
2023-11-15T14:42:04.494Z,16.07
2023-11-15T14:44:35.398Z,16.01
2023-11-15T14:47:04.317Z,15.95
2023-11-15T14:49:33.247Z,15.88
2023-11-15T14:52:09.139Z,15.83
2023-11-15T14:54:41.899Z,15.74
2023-11-15T14:57:12.008Z,15.66
2023-11-15T14:59:47.903Z,15.55
2023-11-15T15:02:18.744Z,15.47
2023-11-15T15:04:49.320Z,15.36
2023-11-15T15:07:20.101Z,15.27
2023-11-15T15:09:48.420Z,15.21
2023-11-15T15:12:16.729Z,15.13
2023-11-15T15:14:46.551Z,14.97
2023-11-15T15:17:23.727Z,14.84
2023-11-15T15:19:54.870Z,14.71
2023-11-15T15:22:25.102Z,14.66
2023-11-15T15:24:53.283Z,14.63
2023-11-15T15:27:22.794Z,14.61
2023-11-15T15:29:52.463Z,14.52
2023-11-15T15:32:20.653Z,14.40
2023-11-15T15:34:48.762Z,14.29
2023-11-15T15:37:16.979Z,14.18
2023-11-15T15:39:45.119Z,14.08
2023-11-15T15:42:13.431Z,14.03
2023-11-15T15:44:41.943Z,13.95
2023-11-15T15:47:11.550Z,13.90
2023-11-15T15:49:46.251Z,13.86
2023-11-15T15:52:14.667Z,13.82
2023-11-15T15:54:43.859Z,13.78
2023-11-15T15:57:12.454Z,13.71
2023-11-15T15:59:41.777Z,13.66
2023-11-15T16:02:11.476Z,13.62
2023-11-15T16:04:42.629Z,13.60
2023-11-15T16:07:11.400Z,13.57
2023-11-15T16:09:42.693Z,13.57
2023-11-15T16:12:11.587Z,13.57
2023-11-15T16:14:40.197Z,13.51
2023-11-15T16:17:09.256Z,13.44
2023-11-15T16:19:39.303Z,13.33
2023-11-15T16:22:08.061Z,13.25
2023-11-15T16:24:36.630Z,13.16
2023-11-15T16:27:05.607Z,13.13
2023-11-15T16:29:34.548Z,13.10
2023-11-15T16:32:03.368Z,13.09
2023-11-15T16:34:31.889Z,13.05
2023-11-15T16:37:02.533Z,13.04
2023-11-15T16:39:30.981Z,13.02
2023-11-15T16:42:01.287Z,13.05
2023-11-15T16:44:34.637Z,13.06
2023-11-15T16:47:03.274Z,13.05
2023-11-15T16:49:31.678Z,13.03
2023-11-15T16:52:02.554Z,13.00
2023-11-15T16:54:32.827Z,12.92
2023-11-15T16:57:03.665Z,12.89
2023-11-15T16:59:32.223Z,12.89
2023-11-15T17:02:00.936Z,12.87
2023-11-15T17:04:29.995Z,12.88
2023-11-15T17:06:59.764Z,12.86
2023-11-15T17:09:30.303Z,12.81
2023-11-15T17:11:58.561Z,12.79
2023-11-15T17:14:27.133Z,12.74
2023-11-15T17:16:55.369Z,12.70
2023-11-15T17:19:23.605Z,12.62
2023-11-15T17:24:21.359Z,12.53
2023-11-15T17:26:51.039Z,12.52
2023-11-15T17:29:19.288Z,12.49
2023-11-15T17:31:47.540Z,12.44
2023-11-15T17:34:16.449Z,12.46
2023-11-15T17:36:46.066Z,12.38
2023-11-15T17:39:16.089Z,12.25
2023-11-15T17:41:44.971Z,12.17
2023-11-15T17:44:16.435Z,12.13
2023-11-15T17:46:44.728Z,12.14
2023-11-15T17:49:13.977Z,12.15
2023-11-15T17:51:45.334Z,12.16
2023-11-15T17:54:15.769Z,12.13
2023-11-15T17:56:44.200Z,12.07
2023-11-15T17:59:12.600Z,12.03
2023-11-15T18:01:43.285Z,12.00
2023-11-15T18:04:16.153Z,11.96
2023-11-15T18:06:45.098Z,11.88
2023-11-15T18:09:13.543Z,11.84
2023-11-15T18:11:42.085Z,11.77
2023-11-15T18:14:10.341Z,11.69
2023-11-15T18:16:38.587Z,11.62
2023-11-15T18:19:09.999Z,11.55
2023-11-15T18:21:38.790Z,11.52
2023-11-15T18:24:09.358Z,11.50
2023-11-15T18:26:38.299Z,11.47
2023-11-15T18:29:07.501Z,11.46
2023-11-15T18:31:35.775Z,11.46
2023-11-15T18:34:04.963Z,11.45
2023-11-15T18:36:35.350Z,11.41
2023-11-15T18:39:04.930Z,11.39
2023-11-15T18:41:33.327Z,11.37
2023-11-15T18:44:02.280Z,11.33
2023-11-15T18:46:30.873Z,11.29
2023-11-15T18:48:59.804Z,11.32
2023-11-15T18:51:31.727Z,11.33
2023-11-15T18:54:02.757Z,11.34
2023-11-15T18:56:32.088Z,11.29
2023-11-15T18:59:01.588Z,11.21
2023-11-15T19:01:30.103Z,11.07
2023-11-15T19:03:58.783Z,10.99
2023-11-15T19:06:29.129Z,10.91
2023-11-15T19:08:59.112Z,10.86
2023-11-15T19:11:32.199Z,10.79
2023-11-15T19:14:01.512Z,10.76
2023-11-15T19:16:30.206Z,10.78
2023-11-15T19:18:58.464Z,10.79
2023-11-15T19:21:26.746Z,10.80
2023-11-15T19:23:55.728Z,10.77
2023-11-15T19:26:25.922Z,10.73
2023-11-15T19:28:55.600Z,10.68
2023-11-15T19:31:25.148Z,10.68
2023-11-15T19:33:55.060Z,10.70
2023-11-15T19:36:23.370Z,10.74
2023-11-15T19:38:51.659Z,10.84
2023-11-15T19:41:20.615Z,10.93
2023-11-15T19:43:48.823Z,11.01
2023-11-15T19:46:21.432Z,11.06
2023-11-15T19:48:49.656Z,11.11
2023-11-15T19:51:36.895Z,11.10
2023-11-15T19:54:08.803Z,11.05
2023-11-15T19:56:37.380Z,10.97
2023-11-15T19:59:05.673Z,10.89
2023-11-15T20:01:35.305Z,10.78
2023-11-15T20:04:06.149Z,10.70
2023-11-15T20:06:34.495Z,10.67
2023-11-15T20:09:02.871Z,10.66
2023-11-15T20:11:31.176Z,10.65
2023-11-15T20:13:59.428Z,10.63
2023-11-15T20:16:28.755Z,10.65
2023-11-15T20:18:58.664Z,10.65
2023-11-15T20:21:26.886Z,10.67
2023-11-15T20:23:55.542Z,10.70
2023-11-15T20:26:23.841Z,10.66
2023-11-15T20:28:53.226Z,10.59
2023-11-15T20:31:22.518Z,10.55
2023-11-15T20:33:51.024Z,10.54
2023-11-15T20:36:21.340Z,10.51
2023-11-15T20:38:49.661Z,10.47
2023-11-15T20:41:17.919Z,10.41
2023-11-15T20:43:46.593Z,10.35
2023-11-15T20:46:17.985Z,10.33
2023-11-15T20:48:48.696Z,10.33
2023-11-15T20:51:17.212Z,10.33
2023-11-15T20:53:47.014Z,10.27
2023-11-15T20:56:15.168Z,10.20
2023-11-15T20:58:43.432Z,10.18
2023-11-15T21:01:11.632Z,10.15
2023-11-15T21:03:40.078Z,10.11
2023-11-15T21:06:10.354Z,10.11
2023-11-15T21:08:39.492Z,10.14
2023-11-15T21:11:09.906Z,10.23
2023-11-15T21:13:39.010Z,10.27
2023-11-15T21:16:08.493Z,10.31
2023-11-15T21:18:37.186Z,10.37
2023-11-15T21:21:06.165Z,10.42
2023-11-15T21:23:36.384Z,10.54
2023-11-15T21:26:07.173Z,10.60
2023-11-15T21:28:38.330Z,10.57
2023-11-15T21:31:07.683Z,10.45
2023-11-15T21:33:36.079Z,10.40
2023-11-15T21:36:05.196Z,10.35
2023-11-15T21:38:33.496Z,10.31
2023-11-15T21:41:02.794Z,10.26
2023-11-15T21:43:31.046Z,10.25
2023-11-15T21:46:00.651Z,10.25
2023-11-15T21:48:29.613Z,10.21
2023-11-15T21:50:57.960Z,10.21
2023-11-15T21:53:26.195Z,10.14
2023-11-15T21:55:54.458Z,10.21
2023-11-15T21:58:22.687Z,10.14
2023-11-15T22:00:50.972Z,10.05
2023-11-15T22:03:20.657Z,9.93
2023-11-15T22:05:49.084Z,9.85
2023-11-15T22:08:17.304Z,9.82
2023-11-15T22:10:45.506Z,9.73
2023-11-15T22:13:13.833Z,9.66
2023-11-15T22:15:42.178Z,9.60
2023-11-15T22:18:10.564Z,9.51
2023-11-15T22:20:40.235Z,9.44
2023-11-15T22:23:08.706Z,9.42
2023-11-15T22:25:36.912Z,9.40
2023-11-15T22:28:05.049Z,9.37
2023-11-15T22:30:33.383Z,9.33
2023-11-15T22:33:01.597Z,9.33
2023-11-15T22:35:30.793Z,9.34
2023-11-15T22:38:00.302Z,9.38
2023-11-15T22:40:28.356Z,9.44
2023-11-15T22:43:04.610Z,9.53
2023-11-15T22:45:33.344Z,9.63
2023-11-15T22:48:02.030Z,9.64
2023-11-15T22:50:30.286Z,9.60
2023-11-15T22:52:59.936Z,9.56
2023-11-15T22:55:28.178Z,9.56
2023-11-15T22:57:56.514Z,9.57
2023-11-15T23:00:34.313Z,9.62
2023-11-15T23:03:10.776Z,9.69
2023-11-15T23:05:41.383Z,9.73
2023-11-15T23:08:11.944Z,9.74
2023-11-15T23:10:40.993Z,9.75
2023-11-15T23:13:09.214Z,9.78
2023-11-15T23:15:37.997Z,9.77
2023-11-15T23:18:06.871Z,9.81
2023-11-15T23:20:36.996Z,9.86
2023-11-15T23:23:05.739Z,9.94
2023-11-15T23:25:35.419Z,9.98
2023-11-15T23:28:05.490Z,9.99
2023-11-15T23:30:36.449Z,10.01
2023-11-15T23:33:04.994Z,10.06
2023-11-15T23:35:34.193Z,10.07
2023-11-15T23:38:02.760Z,10.08
2023-11-15T23:40:31.472Z,10.05
2023-11-15T23:43:01.184Z,9.97
2023-11-15T23:45:31.698Z,9.88
2023-11-15T23:48:01.967Z,9.81
2023-11-15T23:50:30.333Z,9.79
2023-11-15T23:52:58.573Z,9.80
2023-11-15T23:55:26.831Z,9.86
2023-11-15T23:57:55.597Z,9.91
